createdAt,value
2023-04-12T00:00:28.585Z,25.42
2023-04-12T00:02:28.711Z,25.42
2023-04-12T00:04:28.866Z,25.37
2023-04-12T00:06:28.593Z,25.37
2023-04-12T00:08:28.576Z,25.40
2023-04-12T00:10:28.527Z,25.44
2023-04-12T00:12:28.565Z,25.41
2023-04-12T00:14:28.535Z,25.44
2023-04-12T00:16:28.712Z,25.42
2023-04-12T00:18:28.602Z,25.44
2023-04-12T00:20:28.580Z,25.40
2023-04-12T00:22:28.638Z,25.50
2023-04-12T00:24:28.596Z,25.52
2023-04-12T00:26:28.674Z,25.46
2023-04-12T00:28:28.619Z,25.37
2023-04-12T00:30:28.620Z,25.40
2023-04-12T00:32:28.642Z,25.42
2023-04-12T00:34:28.650Z,25.43
2023-04-12T00:36:28.581Z,25.37
2023-04-12T00:38:28.648Z,25.46
2023-04-12T00:40:28.689Z,25.21
2023-04-12T00:42:28.613Z,25.42
2023-04-12T00:44:28.584Z,25.42
2023-04-12T00:46:28.729Z,25.39
2023-04-12T00:48:28.639Z,25.39
2023-04-12T00:50:28.582Z,25.47
2023-04-12T00:52:28.614Z,25.40
2023-04-12T00:54:28.655Z,25.40
2023-04-12T00:56:28.618Z,25.40
2023-04-12T00:58:28.682Z,25.37
2023-04-12T01:00:28.691Z,25.12
2023-04-12T01:02:28.777Z,25.43
2023-04-12T01:04:28.627Z,25.47
2023-04-12T01:06:28.561Z,25.37
2023-04-12T01:08:28.652Z,25.40
2023-04-12T01:10:28.653Z,25.38
2023-04-12T01:12:28.601Z,25.39
2023-04-12T01:14:28.619Z,25.47
2023-04-12T01:16:28.727Z,25.42
2023-04-12T01:18:28.647Z,25.44
2023-04-12T01:20:28.675Z,25.39
2023-04-12T01:22:28.624Z,25.47
2023-04-12T01:24:28.623Z,25.40
2023-04-12T01:26:28.643Z,25.40
2023-04-12T01:28:28.702Z,25.33
2023-04-12T01:30:28.704Z,25.36
2023-04-12T01:32:28.602Z,25.40
2023-04-12T01:34:28.712Z,25.38
2023-04-12T01:36:28.805Z,25.37
2023-04-12T01:38:28.583Z,25.37
2023-04-12T01:40:28.692Z,25.37
2023-04-12T01:42:28.928Z,25.43
2023-04-12T01:44:28.689Z,25.43
2023-04-12T01:46:28.838Z,25.37
2023-04-12T01:48:28.700Z,25.32
2023-04-12T01:50:28.714Z,25.33
2023-04-12T01:52:28.659Z,25.35
2023-04-12T01:54:28.714Z,25.36
2023-04-12T01:56:28.717Z,25.37
2023-04-12T01:58:28.632Z,25.44
2023-04-12T02:00:28.678Z,24.62
2023-04-12T02:02:28.808Z,24.30
2023-04-12T02:04:28.699Z,24.11
2023-04-12T02:06:28.613Z,23.96
2023-04-12T02:08:28.663Z,23.80
2023-04-12T02:10:28.733Z,23.66
2023-04-12T02:12:28.735Z,23.56
2023-04-12T02:14:28.726Z,23.41
2023-04-12T02:16:28.687Z,23.48
2023-04-12T02:18:28.692Z,23.45
2023-04-12T02:20:28.690Z,23.39
2023-04-12T02:22:28.755Z,23.39
2023-04-12T02:24:28.653Z,23.27
2023-04-12T02:26:29.762Z,23.38
2023-04-12T02:28:28.710Z,23.43
2023-04-12T02:30:28.745Z,23.36
2023-04-12T02:32:28.741Z,23.43
2023-04-12T02:34:28.708Z,23.39
2023-04-12T02:36:28.756Z,23.36
2023-04-12T02:38:28.754Z,23.36
2023-04-12T02:40:28.729Z,23.36
2023-04-12T02:42:28.749Z,23.40
2023-04-12T02:44:28.775Z,23.29
2023-04-12T02:46:28.803Z,23.37
2023-04-12T02:48:28.715Z,23.33
2023-04-12T02:50:28.808Z,23.03
2023-04-12T02:52:28.725Z,23.39
2023-04-12T02:54:28.702Z,23.26
2023-04-12T02:56:28.694Z,23.29
2023-04-12T02:58:28.811Z,23.35
2023-04-12T03:00:28.757Z,23.33
2023-04-12T03:02:28.697Z,23.39
2023-04-12T03:04:28.970Z,23.36
2023-04-12T03:06:28.737Z,23.36
2023-04-12T03:08:28.789Z,23.34
2023-04-12T03:10:28.764Z,23.38
2023-04-12T03:12:28.738Z,23.31
2023-04-12T03:14:28.734Z,23.34
2023-04-12T03:16:28.860Z,23.40
2023-04-12T03:18:28.760Z,23.34
2023-04-12T03:20:28.819Z,23.33
2023-04-12T03:22:28.869Z,23.34
2023-04-12T03:24:28.780Z,23.34
2023-04-12T03:26:28.823Z,23.36
2023-04-12T03:28:28.829Z,23.31
2023-04-12T03:30:28.824Z,23.26
2023-04-12T03:32:28.817Z,23.25
2023-04-12T03:34:28.791Z,23.26
2023-04-12T03:36:28.812Z,23.20
2023-04-12T03:38:28.854Z,23.20
2023-04-12T03:40:28.739Z,23.06
2023-04-12T03:42:33.512Z,23.16
2023-04-12T03:44:28.828Z,23.10
2023-04-12T03:46:28.887Z,23.12
2023-04-12T03:48:28.809Z,23.15
2023-04-12T03:50:28.831Z,23.22
2023-04-12T03:52:28.795Z,23.12
2023-04-12T03:54:28.850Z,23.18
2023-04-12T03:56:28.826Z,23.21
2023-04-12T03:58:28.886Z,23.19
2023-04-12T04:00:28.787Z,23.09
2023-04-12T04:02:28.837Z,22.96
2023-04-12T04:04:28.983Z,23.02
2023-04-12T04:06:28.857Z,22.97
2023-04-12T04:08:28.848Z,23.09
2023-04-12T04:10:28.789Z,22.99
2023-04-12T04:12:28.876Z,23.03
2023-04-12T04:14:28.809Z,22.98
2023-04-12T04:16:28.934Z,22.87
2023-04-12T04:18:28.907Z,22.97
2023-04-12T04:20:28.763Z,22.84
2023-04-12T04:22:28.840Z,22.95
2023-04-12T04:24:28.856Z,22.96
2023-04-12T04:26:28.738Z,22.90
2023-04-12T04:28:28.793Z,22.95
2023-04-12T04:30:28.850Z,23.05
2023-04-12T04:32:28.891Z,23.12
2023-04-12T04:34:28.819Z,23.08
2023-04-12T04:36:28.859Z,23.10
2023-04-12T04:38:28.776Z,23.05
2023-04-12T04:40:28.886Z,22.99
2023-04-12T04:42:28.881Z,22.96
2023-04-12T04:44:28.862Z,23.02
2023-04-12T04:46:28.914Z,23.06
2023-04-12T04:48:28.726Z,23.06
2023-04-12T04:50:28.890Z,22.96
2023-04-12T04:52:28.886Z,23.03
2023-04-12T04:54:28.836Z,22.99
2023-04-12T04:56:28.920Z,22.99
2023-04-12T04:58:28.798Z,22.96
2023-04-12T05:00:28.866Z,23.03
2023-04-12T05:02:28.976Z,22.98
2023-04-12T05:04:28.962Z,22.96
2023-04-12T05:06:28.924Z,22.88
2023-04-12T05:08:28.920Z,22.98
2023-04-12T05:10:28.978Z,22.95
2023-04-12T05:12:28.920Z,22.96
2023-04-12T05:14:44.093Z,22.96
2023-04-12T05:16:28.944Z,23.06
2023-04-12T05:18:28.923Z,23.04
2023-04-12T05:20:28.812Z,23.01
2023-04-12T05:22:28.923Z,23.06
2023-04-12T05:24:28.932Z,23.06
2023-04-12T05:26:28.885Z,23.18
2023-04-12T05:28:28.963Z,23.10
2023-04-12T05:30:28.922Z,23.07
2023-04-12T05:32:28.965Z,23.06
2023-04-12T05:34:28.894Z,23.10
2023-04-12T05:36:28.959Z,23.09
2023-04-12T05:38:28.926Z,23.05
2023-04-12T05:40:28.908Z,23.10
2023-04-12T05:42:28.954Z,23.03
2023-04-12T05:44:28.889Z,22.24
2023-04-12T05:46:28.989Z,23.02
2023-04-12T05:48:28.825Z,23.07
2023-04-12T05:50:28.915Z,22.99
2023-04-12T05:52:28.906Z,23.02
2023-04-12T05:54:28.855Z,23.20
2023-04-12T05:56:29.025Z,23.09
2023-04-12T05:58:28.919Z,23.12
2023-04-12T06:00:29.039Z,23.13
2023-04-12T06:02:29.091Z,23.01
2023-04-12T06:04:35.143Z,23.15
2023-04-12T06:06:28.925Z,23.05
2023-04-12T06:08:28.988Z,23.03
2023-04-12T06:10:28.935Z,23.09
2023-04-12T06:12:29.025Z,23.10
2023-04-12T06:14:28.932Z,23.13
2023-04-12T06:16:29.090Z,23.08
2023-04-12T06:18:28.937Z,22.96
2023-04-12T06:20:28.963Z,23.06
2023-04-12T06:22:28.951Z,23.04
2023-04-12T06:24:29.021Z,23.10
2023-04-12T06:26:37.278Z,23.10
2023-04-12T06:28:28.886Z,23.18
2023-04-12T06:30:28.994Z,23.05
2023-04-12T06:32:29.034Z,23.16
2023-04-12T06:34:28.961Z,23.18
2023-04-12T06:36:28.912Z,23.24
2023-04-12T06:38:29.006Z,23.23
2023-04-12T06:40:29.036Z,23.25
2023-04-12T06:42:29.009Z,23.17
2023-04-12T06:44:28.857Z,23.26
2023-04-12T06:46:29.025Z,23.40
2023-04-12T06:48:28.988Z,23.33
2023-04-12T06:50:28.997Z,23.40
2023-04-12T06:52:28.897Z,23.49
2023-04-12T06:54:29.075Z,23.48
2023-04-12T06:56:29.038Z,23.49
2023-04-12T06:58:28.980Z,23.58
2023-04-12T07:00:29.122Z,23.51
2023-04-12T07:02:28.933Z,23.40
2023-04-12T07:04:29.023Z,23.50
2023-04-12T07:06:29.030Z,23.42
2023-04-12T07:08:30.281Z,23.49
2023-04-12T07:10:29.034Z,23.49
2023-04-12T07:12:29.046Z,23.41
2023-04-12T07:14:29.066Z,23.41
2023-04-12T07:16:29.111Z,23.53
2023-04-12T07:18:29.047Z,23.53
2023-04-12T07:20:29.074Z,23.53
2023-04-12T07:22:28.999Z,23.50
2023-04-12T07:24:29.023Z,23.59
2023-04-12T07:26:29.049Z,23.58
2023-04-12T07:28:29.020Z,23.56
2023-04-12T07:30:29.101Z,23.64
2023-04-12T07:32:29.177Z,23.56
2023-04-12T07:34:29.093Z,23.59
2023-04-12T07:36:29.092Z,23.72
2023-04-12T07:38:28.935Z,23.76
2023-04-12T07:40:29.031Z,23.80
2023-04-12T07:42:29.193Z,23.82
2023-04-12T07:44:29.050Z,23.84
2023-04-12T07:46:29.173Z,23.83
2023-04-12T07:48:29.037Z,23.81
2023-04-12T07:50:29.003Z,23.82
2023-04-12T07:52:29.029Z,23.86
2023-04-12T07:54:29.005Z,23.80
2023-04-12T07:56:29.110Z,23.94
2023-04-12T07:58:29.085Z,23.94
2023-04-12T08:00:28.992Z,23.98
2023-04-12T08:02:29.057Z,24.12
2023-04-12T08:04:29.183Z,24.23
2023-04-12T08:06:31.063Z,24.24
2023-04-12T08:08:29.099Z,24.24
2023-04-12T08:10:29.086Z,24.38
2023-04-12T08:12:29.060Z,24.51
2023-04-12T08:14:28.994Z,24.51
2023-04-12T08:16:29.150Z,24.42
2023-04-12T08:18:29.087Z,24.37
2023-04-12T08:20:29.142Z,24.21
2023-04-12T08:22:29.127Z,24.26
2023-04-12T08:24:29.103Z,24.28
2023-04-12T08:26:29.114Z,24.38
2023-04-12T08:28:29.224Z,24.40
2023-04-12T08:30:29.081Z,24.40
2023-04-12T08:32:29.169Z,24.30
2023-04-12T08:34:29.092Z,24.20
2023-04-12T08:36:29.245Z,24.20
2023-04-12T08:38:44.240Z,24.27
2023-04-12T08:40:29.251Z,24.27
2023-04-12T08:42:29.127Z,24.39
2023-04-12T08:44:29.042Z,24.52
2023-04-12T08:46:29.090Z,24.48
2023-04-12T08:48:29.026Z,24.52
2023-04-12T08:50:29.124Z,24.64
2023-04-12T08:52:29.169Z,24.52
2023-04-12T08:54:29.036Z,24.44
2023-04-12T08:56:29.350Z,24.54
2023-04-12T08:58:29.044Z,24.55
2023-04-12T09:00:29.111Z,24.62
2023-04-12T09:02:29.321Z,24.60
2023-04-12T09:04:29.218Z,24.52
2023-04-12T09:06:29.240Z,24.73
2023-04-12T09:08:29.189Z,24.90
2023-04-12T09:10:29.194Z,24.79
2023-04-12T09:12:29.418Z,24.95
2023-04-12T09:14:29.205Z,24.95
2023-04-12T09:16:29.228Z,25.08
2023-04-12T09:18:29.197Z,25.15
2023-04-12T09:20:29.155Z,25.17
2023-04-12T09:22:29.088Z,24.79
2023-04-12T09:24:29.115Z,24.63
2023-04-12T09:26:29.233Z,24.74
2023-04-12T09:28:29.215Z,24.95
2023-04-12T09:30:29.093Z,24.96
2023-04-12T09:32:29.268Z,24.84
2023-04-12T09:34:29.121Z,24.75
2023-04-12T09:36:29.192Z,24.76
2023-04-12T09:38:29.108Z,24.86
2023-04-12T09:40:29.288Z,25.10
2023-04-12T09:42:33.789Z,25.01
2023-04-12T09:44:29.122Z,25.12
2023-04-12T09:46:29.144Z,24.85
2023-04-12T09:48:29.181Z,24.73
2023-04-12T09:50:29.389Z,24.59
2023-04-12T09:52:30.729Z,24.61
2023-04-12T09:54:29.235Z,24.48
2023-04-12T09:56:29.272Z,24.52
2023-04-12T09:58:30.669Z,24.86
2023-04-12T10:00:29.149Z,24.90
2023-04-12T10:02:29.299Z,24.87
2023-04-12T10:04:29.350Z,24.87
2023-04-12T10:06:29.179Z,24.79
2023-04-12T10:08:29.309Z,24.18
2023-04-12T10:10:29.255Z,23.76
2023-04-12T10:12:29.182Z,23.95
2023-04-12T10:14:29.111Z,24.01
2023-04-12T10:16:29.238Z,24.14
2023-04-12T10:18:29.252Z,24.18
2023-04-12T10:20:29.711Z,24.71
2023-04-12T10:22:29.212Z,24.86
2023-04-12T10:24:29.319Z,24.76
2023-04-12T10:26:29.237Z,24.82
2023-04-12T10:28:29.298Z,24.66
2023-04-12T10:30:29.283Z,24.66
2023-04-12T10:32:29.345Z,24.82
2023-04-12T10:34:29.273Z,24.90
2023-04-12T10:36:29.366Z,24.80
2023-04-12T10:38:29.286Z,24.73
2023-04-12T10:40:29.283Z,24.87
2023-04-12T10:42:29.263Z,25.01
2023-04-12T10:44:29.265Z,25.15
2023-04-12T10:46:29.285Z,25.12
2023-04-12T10:48:29.334Z,24.95
2023-04-12T10:50:29.178Z,24.91
2023-04-12T10:52:29.188Z,24.70
2023-04-12T10:54:29.240Z,24.82
2023-04-12T10:56:30.764Z,24.64
2023-04-12T10:58:29.268Z,24.59
2023-04-12T11:00:29.240Z,24.66
2023-04-12T11:02:29.501Z,24.76
2023-04-12T11:04:29.398Z,24.82
2023-04-12T11:06:29.135Z,24.80
2023-04-12T11:08:29.210Z,24.60
2023-04-12T11:10:29.289Z,24.38
2023-04-12T11:12:29.413Z,24.43
2023-04-12T11:14:29.269Z,24.40
2023-04-12T11:16:29.439Z,24.40
2023-04-12T11:18:29.387Z,24.51
2023-04-12T11:20:29.239Z,24.56
2023-04-12T11:22:29.309Z,24.64
2023-04-12T11:24:29.498Z,24.66
2023-04-12T11:26:29.208Z,24.80
2023-04-12T11:28:31.844Z,24.83
2023-04-12T11:30:29.296Z,24.89
2023-04-12T11:32:29.429Z,24.76
2023-04-12T11:34:29.293Z,24.75
2023-04-12T11:36:29.218Z,25.09
2023-04-12T11:38:29.292Z,25.07
2023-04-12T11:40:29.269Z,25.19
2023-04-12T11:42:29.371Z,25.21
2023-04-12T11:44:31.857Z,25.12
2023-04-12T11:46:29.548Z,25.23
2023-04-12T11:48:29.234Z,25.28
2023-04-12T11:50:29.316Z,25.28
2023-04-12T11:52:29.282Z,25.00
2023-04-12T11:54:29.427Z,24.84
2023-04-12T11:56:29.368Z,24.72
2023-04-12T11:58:29.370Z,24.71
2023-04-12T12:00:29.347Z,24.70
2023-04-12T12:02:34.626Z,24.90
2023-04-12T12:04:29.542Z,24.90
2023-04-12T12:06:29.681Z,25.00
2023-04-12T12:08:29.628Z,25.14
2023-04-12T12:10:43.753Z,25.09
2023-04-12T12:12:29.163Z,24.90
2023-04-12T12:14:29.292Z,24.90
2023-04-12T12:16:29.324Z,24.73
2023-04-12T12:18:29.277Z,24.54
2023-04-12T12:20:29.343Z,24.77
2023-04-12T12:22:29.339Z,24.51
2023-04-12T12:24:29.370Z,24.89
2023-04-12T12:26:29.310Z,24.95
2023-04-12T12:28:29.416Z,24.73
2023-04-12T12:30:29.275Z,24.74
2023-04-12T12:32:29.347Z,24.55
2023-04-12T12:34:29.481Z,24.47
2023-04-12T12:36:29.350Z,24.63
2023-04-12T12:38:32.492Z,24.55
2023-04-12T12:40:29.388Z,24.64
2023-04-12T12:42:29.418Z,24.59
2023-04-12T12:44:29.416Z,25.01
2023-04-12T12:46:40.638Z,24.93
2023-04-12T12:48:29.451Z,25.05
2023-04-12T12:50:29.429Z,24.59
2023-04-12T12:52:29.403Z,24.80
2023-04-12T12:54:40.135Z,24.90
2023-04-12T12:56:29.416Z,25.08
2023-04-12T12:58:29.330Z,25.27
2023-04-12T13:00:29.450Z,25.84
2023-04-12T13:02:29.469Z,25.10
2023-04-12T13:04:29.399Z,24.89
2023-04-12T13:06:29.329Z,24.91
2023-04-12T13:08:29.573Z,25.24
2023-04-12T13:10:29.399Z,25.15
2023-04-12T13:12:29.489Z,24.53
2023-04-12T13:14:29.350Z,23.88
2023-04-12T13:16:29.434Z,23.79
2023-04-12T13:18:29.374Z,23.98
2023-04-12T13:20:29.263Z,24.06
2023-04-12T13:22:29.387Z,23.99
2023-04-12T13:24:29.344Z,24.20
2023-04-12T13:26:29.375Z,24.21
2023-04-12T13:28:29.479Z,24.10
2023-04-12T13:30:29.485Z,24.10
2023-04-12T13:32:29.465Z,24.10
2023-04-12T13:34:29.475Z,24.01
2023-04-12T13:36:29.412Z,23.98
2023-04-12T13:38:29.390Z,23.91
2023-04-12T13:40:29.362Z,23.96
2023-04-12T13:42:29.479Z,23.92
2023-04-12T13:44:29.465Z,23.96
2023-04-12T13:46:29.540Z,23.98
2023-04-12T13:48:29.410Z,24.64
2023-04-12T13:50:29.467Z,24.40
2023-04-12T13:52:29.470Z,24.82
2023-04-12T13:54:29.426Z,24.93
2023-04-12T13:56:30.860Z,25.17
2023-04-12T13:58:29.417Z,24.98
2023-04-12T14:00:29.440Z,24.95
2023-04-12T14:02:31.317Z,25.07
2023-04-12T14:04:29.410Z,24.83
2023-04-12T14:06:29.466Z,24.82
2023-04-12T14:08:29.478Z,25.37
2023-04-12T14:10:29.478Z,25.47
2023-04-12T14:12:29.592Z,25.23
2023-04-12T14:14:29.490Z,24.98
2023-04-12T14:16:29.546Z,24.93
2023-04-12T14:18:29.522Z,25.27
2023-04-12T14:20:29.477Z,25.37
2023-04-12T14:22:29.504Z,25.97
2023-04-12T14:24:29.526Z,24.98
2023-04-12T14:26:29.427Z,24.82
2023-04-12T14:28:29.501Z,24.85
2023-04-12T14:30:29.531Z,24.98
2023-04-12T14:32:29.498Z,24.86
2023-04-12T14:34:29.511Z,24.90
2023-04-12T14:36:29.470Z,24.76
2023-04-12T14:38:29.506Z,24.82
2023-04-12T14:40:29.651Z,24.67
2023-04-12T14:42:29.371Z,24.35
2023-04-12T14:44:29.523Z,24.12
2023-04-12T14:46:29.554Z,24.10
2023-04-12T14:48:29.370Z,24.10
2023-04-12T14:50:29.421Z,23.90
2023-04-12T14:52:29.595Z,23.81
2023-04-12T14:54:29.558Z,23.79
2023-04-12T14:56:31.399Z,23.65
2023-04-12T14:58:29.452Z,23.76
2023-04-12T15:00:29.624Z,23.70
2023-04-12T15:02:29.684Z,23.66
2023-04-12T15:04:29.569Z,23.62
2023-04-12T15:06:29.577Z,23.64
2023-04-12T15:08:29.502Z,23.57
2023-04-12T15:10:29.548Z,23.62
2023-04-12T15:12:29.509Z,23.59
2023-04-12T15:14:29.544Z,23.55
2023-04-12T15:16:29.574Z,23.54
2023-04-12T15:18:29.550Z,23.65
2023-04-12T15:20:29.461Z,23.63
2023-04-12T15:22:29.547Z,23.66
2023-04-12T15:24:29.488Z,23.73
2023-04-12T15:26:29.523Z,23.70
2023-04-12T15:28:29.555Z,23.63
2023-04-12T15:30:29.601Z,23.64
2023-04-12T15:32:29.564Z,23.73
2023-04-12T15:34:29.545Z,23.81
2023-04-12T15:36:29.540Z,23.91
2023-04-12T15:38:29.579Z,24.14
2023-04-12T15:40:29.538Z,24.44
2023-04-12T15:42:29.598Z,25.37
2023-04-12T15:44:29.615Z,25.04
2023-04-12T15:46:29.573Z,25.21
2023-04-12T15:48:29.592Z,25.18
2023-04-12T15:50:29.626Z,25.12
2023-04-12T15:52:29.559Z,25.11
2023-04-12T15:54:29.554Z,25.27
2023-04-12T15:56:29.582Z,25.36
2023-04-12T15:58:29.586Z,25.23
2023-04-12T16:00:29.667Z,25.23
2023-04-12T16:02:29.770Z,25.23
2023-04-12T16:04:29.850Z,25.17
2023-04-12T16:06:29.598Z,24.81
2023-04-12T16:08:29.406Z,24.62
2023-04-12T16:10:29.578Z,24.62
2023-04-12T16:12:29.629Z,25.24
2023-04-12T16:14:29.512Z,25.26
2023-04-12T16:16:29.756Z,25.32
2023-04-12T16:18:29.676Z,25.37
2023-04-12T16:20:29.596Z,25.46
2023-04-12T16:22:29.602Z,25.83
2023-04-12T16:24:29.635Z,26.17
2023-04-12T16:26:29.648Z,25.08
2023-04-12T16:28:29.650Z,25.01
2023-04-12T16:30:29.587Z,25.01
2023-04-12T16:32:29.640Z,25.11
2023-04-12T16:34:29.574Z,24.67
2023-04-12T16:36:29.623Z,24.32
2023-04-12T16:38:29.684Z,24.04
2023-04-12T16:40:29.607Z,24.26
2023-04-12T16:42:29.653Z,24.32
2023-04-12T16:44:29.612Z,24.20
2023-04-12T16:46:29.634Z,24.27
2023-04-12T16:48:29.560Z,24.12
2023-04-12T16:50:29.585Z,24.14
2023-04-12T16:52:29.665Z,24.39
2023-04-12T16:54:29.674Z,24.42
2023-04-12T16:56:29.614Z,24.49
2023-04-12T16:58:29.588Z,24.67
2023-04-12T17:00:29.612Z,24.75
2023-04-12T17:02:29.793Z,24.67
2023-04-12T17:04:29.818Z,24.66
2023-04-12T17:06:29.664Z,24.66
2023-04-12T17:08:29.674Z,24.69
2023-04-12T17:10:29.680Z,24.51
2023-04-12T17:12:30.710Z,24.29
2023-04-12T17:14:29.707Z,24.27
2023-04-12T17:16:29.649Z,24.10
2023-04-12T17:18:29.645Z,24.05
2023-04-12T17:20:29.639Z,23.93
2023-04-12T17:22:29.813Z,23.93
2023-04-12T17:24:29.589Z,23.81
2023-04-12T17:26:29.632Z,23.81
2023-04-12T17:28:29.505Z,23.70
2023-04-12T17:30:29.648Z,23.65
2023-04-12T17:32:29.712Z,23.69
2023-04-12T17:34:29.657Z,23.68
2023-04-12T17:36:29.695Z,23.66
2023-04-12T17:38:29.743Z,23.59
2023-04-12T17:40:29.582Z,23.65
2023-04-12T17:42:29.613Z,23.52
2023-04-12T17:44:29.696Z,23.55
2023-04-12T17:46:29.753Z,23.50
2023-04-12T17:48:29.693Z,23.44
2023-04-12T17:50:29.584Z,23.43
2023-04-12T17:52:29.654Z,23.50
2023-04-12T17:54:29.701Z,23.44
2023-04-12T17:56:29.700Z,23.51
2023-04-12T17:58:29.779Z,23.41
2023-04-12T18:00:29.781Z,23.45
2023-04-12T18:02:29.833Z,23.56
2023-04-12T18:04:29.717Z,23.53
2023-04-12T18:06:29.746Z,23.59
2023-04-12T18:08:29.661Z,23.57
2023-04-12T18:10:29.744Z,23.61
2023-04-12T18:12:29.755Z,23.58
2023-04-12T18:14:29.745Z,23.57
2023-04-12T18:16:29.781Z,23.61
2023-04-12T18:18:29.686Z,23.66
2023-04-12T18:20:29.713Z,23.59
2023-04-12T18:22:29.731Z,23.58
2023-04-12T18:24:29.776Z,23.56
2023-04-12T18:26:29.765Z,23.58
2023-04-12T18:28:29.706Z,23.57
2023-04-12T18:30:29.730Z,23.55
2023-04-12T18:32:29.846Z,23.56
2023-04-12T18:34:29.815Z,23.55
2023-04-12T18:36:29.669Z,26.94
2023-04-12T18:38:29.765Z,27.02
2023-04-12T18:40:29.762Z,27.09
2023-04-12T18:42:29.754Z,26.98
2023-04-12T18:44:29.686Z,27.05
2023-04-12T18:46:29.887Z,27.03
2023-04-12T18:48:29.731Z,25.43
2023-04-12T18:50:29.780Z,25.37
2023-04-12T18:52:29.781Z,25.38
2023-04-12T18:54:29.743Z,25.39
2023-04-12T18:56:29.771Z,25.45
2023-04-12T18:58:37.055Z,25.41
2023-04-12T19:00:29.780Z,25.50
2023-04-12T19:02:29.848Z,25.46
2023-04-12T19:04:29.867Z,25.37
2023-04-12T19:06:29.750Z,25.40
2023-04-12T19:08:29.750Z,25.49
2023-04-12T19:10:29.787Z,25.43
2023-04-12T19:12:29.763Z,25.38
2023-04-12T19:14:29.774Z,25.38
2023-04-12T19:16:29.866Z,25.43
2023-04-12T19:18:29.640Z,25.37
2023-04-12T19:20:29.815Z,25.35
2023-04-12T19:22:29.811Z,25.35
2023-04-12T19:24:29.798Z,25.40
2023-04-12T19:26:29.802Z,25.40
2023-04-12T19:28:29.731Z,25.37
2023-04-12T19:30:29.725Z,25.36
2023-04-12T19:32:29.737Z,25.42
2023-04-12T19:34:29.807Z,25.44
2023-04-12T19:36:29.759Z,25.36
2023-04-12T19:38:29.828Z,25.44
2023-04-12T19:40:31.116Z,25.42
2023-04-12T19:42:29.873Z,25.42
2023-04-12T19:44:29.800Z,25.51
2023-04-12T19:46:29.817Z,25.39
2023-04-12T19:48:29.713Z,25.45
2023-04-12T19:50:29.886Z,25.45
2023-04-12T19:52:29.727Z,25.37
2023-04-12T19:54:29.774Z,25.49
2023-04-12T19:56:29.810Z,25.41
2023-04-12T19:58:29.783Z,25.37
2023-04-12T20:00:29.770Z,25.42
2023-04-12T20:02:29.947Z,25.45
2023-04-12T20:04:29.956Z,25.43
2023-04-12T20:06:29.879Z,25.39
2023-04-12T20:08:29.796Z,25.39
2023-04-12T20:10:29.898Z,25.45
2023-04-12T20:12:29.822Z,25.37
2023-04-12T20:14:29.892Z,25.37
2023-04-12T20:16:29.931Z,25.36
2023-04-12T20:18:29.850Z,25.37
2023-04-12T20:20:29.872Z,25.29
2023-04-12T20:22:29.876Z,25.37
2023-04-12T20:24:29.861Z,25.39
2023-04-12T20:26:29.875Z,25.31
2023-04-12T20:28:29.830Z,25.33
2023-04-12T20:30:29.924Z,25.43
2023-04-12T20:32:29.866Z,25.37
2023-04-12T20:34:29.884Z,25.45
2023-04-12T20:36:29.877Z,25.29
2023-04-12T20:38:29.808Z,25.40
2023-04-12T20:40:30.167Z,25.34
2023-04-12T20:42:29.840Z,25.42
2023-04-12T20:44:29.904Z,25.40
2023-04-12T20:46:29.807Z,25.37
2023-04-12T20:48:29.863Z,25.38
2023-04-12T20:50:29.921Z,25.39
2023-04-12T20:52:29.875Z,25.40
2023-04-12T20:54:29.882Z,25.36
2023-04-12T20:56:29.949Z,25.35
2023-04-12T20:58:29.916Z,25.37
2023-04-12T21:00:29.956Z,25.44
2023-04-12T21:02:31.208Z,25.39
2023-04-12T21:04:29.974Z,25.33
2023-04-12T21:06:29.921Z,25.12
2023-04-12T21:08:29.892Z,25.24
2023-04-12T21:10:29.872Z,25.44
2023-04-12T21:12:29.959Z,25.34
2023-04-12T21:14:29.899Z,25.31
2023-04-12T21:16:30.005Z,25.27
2023-04-12T21:18:30.153Z,25.31
2023-04-12T21:20:29.893Z,25.35
2023-04-12T21:22:29.936Z,25.24
2023-04-12T21:24:29.934Z,25.23
2023-04-12T21:26:29.887Z,25.29
2023-04-12T21:28:29.816Z,25.37
2023-04-12T21:30:29.915Z,25.29
2023-04-12T21:32:30.124Z,25.29
2023-04-12T21:34:29.788Z,25.35
2023-04-12T21:36:29.977Z,25.33
2023-04-12T21:38:29.994Z,25.35
2023-04-12T21:40:29.875Z,25.36
2023-04-12T21:42:29.948Z,25.32
2023-04-12T21:44:29.978Z,25.38
2023-04-12T21:46:30.001Z,25.27
2023-04-12T21:48:29.938Z,25.32
2023-04-12T21:50:29.922Z,25.33
2023-04-12T21:52:29.904Z,25.28
2023-04-12T21:54:30.034Z,25.46
2023-04-12T21:56:29.909Z,25.38
2023-04-12T21:58:29.948Z,25.39
2023-04-12T22:00:30.006Z,25.46
2023-04-12T22:02:30.159Z,25.35
2023-04-12T22:04:29.912Z,25.38
2023-04-12T22:06:29.910Z,25.37
2023-04-12T22:08:29.985Z,25.37
2023-04-12T22:10:29.845Z,25.40
2023-04-12T22:12:29.946Z,25.45
2023-04-12T22:14:30.024Z,25.37
2023-04-12T22:16:30.043Z,25.36
2023-04-12T22:18:30.007Z,25.40
2023-04-12T22:20:30.009Z,25.42
2023-04-12T22:22:30.002Z,25.44
2023-04-12T22:24:29.955Z,25.35
2023-04-12T22:26:29.971Z,25.43
2023-04-12T22:28:29.945Z,25.42
2023-04-12T22:30:29.899Z,25.39
2023-04-12T22:32:30.107Z,25.43
2023-04-12T22:34:30.001Z,25.43
2023-04-12T22:36:30.008Z,25.40
2023-04-12T22:38:30.023Z,25.40
2023-04-12T22:40:29.983Z,25.40
2023-04-12T22:42:30.057Z,25.37
2023-04-12T22:44:29.921Z,25.40
2023-04-12T22:46:30.038Z,25.40
2023-04-12T22:48:29.994Z,25.49
2023-04-12T22:50:30.007Z,25.51
2023-04-12T22:52:29.952Z,25.47
2023-04-12T22:54:29.938Z,25.36
2023-04-12T22:56:30.046Z,25.33
2023-04-12T22:58:30.012Z,25.37
2023-04-12T23:00:29.988Z,25.35
2023-04-12T23:02:30.055Z,25.37
2023-04-12T23:04:29.999Z,25.37
2023-04-12T23:06:30.010Z,25.47
2023-04-12T23:08:30.008Z,25.47
2023-04-12T23:10:30.039Z,25.40
2023-04-12T23:12:30.010Z,25.43
2023-04-12T23:14:30.119Z,25.39
2023-04-12T23:16:30.218Z,25.44
2023-04-12T23:18:30.088Z,25.40
2023-04-12T23:20:30.110Z,25.49
2023-04-12T23:24:30.005Z,25.42
2023-04-12T23:26:30.073Z,25.39
2023-04-12T23:28:30.147Z,25.44
2023-04-12T23:30:29.879Z,25.44
2023-04-12T23:32:30.160Z,25.40
2023-04-12T23:34:30.159Z,25.45
2023-04-12T23:36:30.189Z,25.39
2023-04-12T23:38:30.026Z,25.40
2023-04-12T23:40:30.113Z,25.36
2023-04-12T23:42:30.038Z,25.37
2023-04-12T23:44:30.065Z,25.36
2023-04-12T23:46:30.077Z,25.35
2023-04-12T23:48:30.055Z,25.38
2023-04-12T23:50:30.025Z,25.05
2023-04-12T23:52:30.081Z,25.37
2023-04-12T23:54:30.025Z,25.37
2023-04-12T23:56:30.079Z,25.37
2023-04-12T23:58:30.083Z,25.37
